createdAt,value
2019-04-01T00:00:35.911Z,0.00
2019-04-01T00:01:34.163Z,0.00
2019-04-01T00:02:34.148Z,0.00
2019-04-01T00:03:34.133Z,0.00
2019-04-01T00:04:34.129Z,0.00
2019-04-01T00:05:34.120Z,0.00
2019-04-01T00:06:34.412Z,0.00
2019-04-01T00:07:34.097Z,0.00
2019-04-01T00:08:34.089Z,0.00
2019-04-01T00:09:34.409Z,0.00
2019-04-01T00:10:34.063Z,0.00
2019-04-01T00:11:36.860Z,0.00
2019-04-01T00:12:34.042Z,0.00
2019-04-01T00:13:34.034Z,0.00
2019-04-01T00:14:34.025Z,0.00
2019-04-01T00:15:34.042Z,0.00
2019-04-01T00:16:34.007Z,0.00
2019-04-01T00:17:33.987Z,0.00
2019-04-01T00:18:36.867Z,0.00
2019-04-01T00:19:33.959Z,0.00
2019-04-01T00:20:33.972Z,0.00
2019-04-01T00:21:33.957Z,0.00
2019-04-01T00:22:33.977Z,0.00
2019-04-01T00:23:33.923Z,0.00
2019-04-01T00:24:33.917Z,0.00
2019-04-01T00:25:33.899Z,0.00
2019-04-01T00:26:33.889Z,0.00
2019-04-01T00:27:36.868Z,0.00
2019-04-01T00:28:33.871Z,0.00
2019-04-01T00:29:33.853Z,0.00
2019-04-01T00:30:36.354Z,0.00
2019-04-01T00:31:33.847Z,0.00
2019-04-01T00:32:33.829Z,0.00
2019-04-01T00:33:33.843Z,0.00
2019-04-01T00:34:33.801Z,0.00
2019-04-01T00:35:33.794Z,0.00
2019-04-01T00:36:33.783Z,0.00
2019-04-01T00:37:33.772Z,0.00
2019-04-01T00:38:33.758Z,0.00
2019-04-01T00:39:33.766Z,0.00
2019-04-01T00:40:33.734Z,0.00
2019-04-01T00:41:33.727Z,0.00
2019-04-01T00:43:32.700Z,0.00
2019-04-01T00:45:32.715Z,0.00
2019-04-01T00:46:33.674Z,0.00
2019-04-01T00:47:33.657Z,0.00
2019-04-01T00:48:33.731Z,0.00
2019-04-01T00:49:33.656Z,0.00
2019-04-01T00:50:33.627Z,0.00
2019-04-01T00:51:36.352Z,0.00
2019-04-01T00:52:33.607Z,0.00
2019-04-01T00:53:33.593Z,0.00
2019-04-01T00:54:33.899Z,0.00
2019-04-01T00:55:33.572Z,0.00
2019-04-01T00:56:33.571Z,0.00
2019-04-01T00:57:33.553Z,0.00
2019-04-01T00:58:33.533Z,0.00
2019-04-01T01:00:32.534Z,0.00
2019-04-01T01:01:33.506Z,0.00
2019-04-01T01:02:33.488Z,0.00
2019-04-01T01:03:36.347Z,0.00
2019-04-01T01:04:33.475Z,0.00
2019-04-01T01:05:33.487Z,0.00
2019-04-01T01:06:33.451Z,0.00
2019-04-01T01:07:33.437Z,0.00
2019-04-01T01:08:33.433Z,0.00
2019-04-01T01:09:33.422Z,0.00
2019-04-01T01:10:33.410Z,0.00
2019-04-01T01:11:38.888Z,0.00
2019-04-01T01:13:32.367Z,0.00
2019-04-01T01:14:33.364Z,0.00
2019-04-01T01:15:33.355Z,0.00
2019-04-01T01:16:33.842Z,0.00
2019-04-01T01:17:33.856Z,0.00
2019-04-01T01:19:32.309Z,0.00
2019-04-01T01:20:33.304Z,0.00
2019-04-01T01:21:33.291Z,0.00
2019-04-01T01:22:33.278Z,0.00
2019-04-01T01:23:34.885Z,0.00
2019-04-01T01:24:33.259Z,0.00
2019-04-01T01:25:33.247Z,0.00
2019-04-01T01:26:33.231Z,0.00
2019-04-01T01:27:33.229Z,0.00
2019-04-01T01:28:33.210Z,0.00
2019-04-01T01:29:33.221Z,0.00
2019-04-01T01:30:33.193Z,0.00
2019-04-01T01:31:33.187Z,0.00
2019-04-01T01:32:35.839Z,0.00
2019-04-01T01:33:33.159Z,0.00
2019-04-01T01:34:33.159Z,0.00
2019-04-01T01:35:33.131Z,0.00
2019-04-01T01:36:33.839Z,0.00
2019-04-01T01:37:33.111Z,0.00
2019-04-01T01:38:33.095Z,0.00
2019-04-01T01:39:33.100Z,0.00
2019-04-01T01:40:33.125Z,0.00
2019-04-01T01:41:33.070Z,0.00
2019-04-01T01:42:33.059Z,0.00
2019-04-01T01:43:33.137Z,0.00
2019-04-01T01:44:33.041Z,0.00
2019-04-01T01:45:33.022Z,0.00
2019-04-01T01:46:33.040Z,0.00
2019-04-01T01:47:33.005Z,0.00
2019-04-01T01:48:32.990Z,0.00
2019-04-01T01:49:32.989Z,0.00
2019-04-01T01:50:32.965Z,0.00
2019-04-01T01:51:35.840Z,0.00
2019-04-01T01:52:32.971Z,0.00
2019-04-01T01:53:32.947Z,0.00
2019-04-01T01:54:32.940Z,0.00
2019-04-01T01:55:32.917Z,0.00
2019-04-01T01:56:32.903Z,0.00
2019-04-01T01:57:32.897Z,0.00
2019-04-01T01:58:32.894Z,0.00
2019-04-01T01:59:32.873Z,0.00
2019-04-01T02:00:32.865Z,0.00
2019-04-01T02:01:32.849Z,0.00
2019-04-01T02:02:32.851Z,0.00
2019-04-01T02:03:32.835Z,0.00
2019-04-01T02:04:33.335Z,0.00
2019-04-01T02:05:32.810Z,0.00
2019-04-01T02:06:32.796Z,0.00
2019-04-01T02:07:32.791Z,0.00
2019-04-01T02:08:32.788Z,0.00
2019-04-01T02:09:32.765Z,0.00
2019-04-01T02:10:32.788Z,0.00
2019-04-01T02:11:32.749Z,0.00
2019-04-01T02:12:32.733Z,0.00
2019-04-01T02:13:32.721Z,0.00
2019-04-01T02:14:32.714Z,0.00
2019-04-01T02:15:32.709Z,0.00
2019-04-01T02:16:32.705Z,0.00
2019-04-01T02:17:32.685Z,0.00
2019-04-01T02:18:32.671Z,0.00
2019-04-01T02:19:32.665Z,0.00
2019-04-01T02:20:35.330Z,0.00
2019-04-01T02:21:32.679Z,0.00
2019-04-01T02:22:32.625Z,0.00
2019-04-01T02:23:35.325Z,0.00
2019-04-01T02:24:35.318Z,0.00
2019-04-01T02:26:31.582Z,0.00
2019-04-01T02:27:32.619Z,0.00
2019-04-01T02:28:32.562Z,0.00
2019-04-01T02:29:32.550Z,0.00
2019-04-01T02:30:32.549Z,0.00
2019-04-01T02:31:32.542Z,0.00
2019-04-01T02:32:32.518Z,0.00
2019-04-01T02:33:32.542Z,0.00
2019-04-01T02:34:32.504Z,0.00
2019-04-01T02:35:32.492Z,0.00
2019-04-01T02:36:32.485Z,0.00
2019-04-01T02:37:32.465Z,0.00
2019-04-01T02:38:32.451Z,0.00
2019-04-01T02:39:32.470Z,0.00
2019-04-01T02:40:35.332Z,0.00
2019-04-01T02:41:32.441Z,0.00
2019-04-01T02:42:32.404Z,0.00
2019-04-01T02:43:32.405Z,0.00
2019-04-01T02:44:32.403Z,0.00
2019-04-01T02:45:32.414Z,0.00
2019-04-01T02:46:32.372Z,0.00
2019-04-01T02:47:32.357Z,0.00
2019-04-01T02:48:34.817Z,0.00
2019-04-01T02:49:32.341Z,0.00
2019-04-01T02:50:32.326Z,0.00
2019-04-01T02:51:34.820Z,0.00
2019-04-01T02:52:32.301Z,0.00
2019-04-01T02:53:34.811Z,0.00
2019-04-01T02:54:32.281Z,0.00
2019-04-01T02:55:32.269Z,0.00
2019-04-01T02:56:32.297Z,0.00
2019-04-01T02:58:31.238Z,0.00
2019-04-01T02:59:32.221Z,0.00
2019-04-01T03:00:32.230Z,0.00
2019-04-01T03:01:32.207Z,0.00
2019-04-01T03:02:32.201Z,0.00
2019-04-01T03:03:32.182Z,0.00
2019-04-01T03:05:31.167Z,0.00
2019-04-01T03:06:32.157Z,0.00
2019-04-01T03:07:32.183Z,0.00
2019-04-01T03:08:32.136Z,0.00
2019-04-01T03:09:32.128Z,0.00
2019-04-01T03:10:32.109Z,0.00
2019-04-01T03:11:32.107Z,0.00
2019-04-01T03:12:32.084Z,0.00
2019-04-01T03:13:32.096Z,0.00
2019-04-01T03:14:32.078Z,0.00
2019-04-01T03:15:32.052Z,0.00
2019-04-01T03:16:32.041Z,0.00
2019-04-01T03:17:32.061Z,0.00
2019-04-01T03:18:32.024Z,0.00
2019-04-01T03:19:32.013Z,0.00
2019-04-01T03:20:32.020Z,0.00
2019-04-01T03:21:34.815Z,0.00
2019-04-01T03:22:31.983Z,0.00
2019-04-01T03:23:31.972Z,0.00
2019-04-01T03:24:31.958Z,0.00
2019-04-01T03:25:31.951Z,0.00
2019-04-01T03:26:35.350Z,0.00
2019-04-01T03:27:31.920Z,0.00
2019-04-01T03:28:31.915Z,0.00
2019-04-01T03:29:31.900Z,0.00
2019-04-01T03:30:31.895Z,0.00
2019-04-01T03:31:31.885Z,0.00
2019-04-01T03:32:31.918Z,0.00
2019-04-01T03:33:31.857Z,0.00
2019-04-01T03:34:31.859Z,0.00
2019-04-01T03:35:31.840Z,0.00
2019-04-01T03:36:31.830Z,0.00
2019-04-01T03:38:30.839Z,0.00
2019-04-01T03:39:31.793Z,0.00
2019-04-01T03:40:31.786Z,0.00
2019-04-01T03:41:31.785Z,0.00
2019-04-01T03:42:31.779Z,0.00
2019-04-01T03:43:31.753Z,0.00
2019-04-01T03:44:31.741Z,0.00
2019-04-01T03:45:31.724Z,0.00
2019-04-01T03:46:34.303Z,0.00
2019-04-01T03:48:30.705Z,0.00
2019-04-01T03:49:31.682Z,0.00
2019-04-01T03:50:31.707Z,0.00
2019-04-01T03:51:31.681Z,0.00
2019-04-01T03:53:30.710Z,0.00
2019-04-01T03:54:31.631Z,0.00
2019-04-01T03:55:33.349Z,0.00
2019-04-01T03:56:31.635Z,0.00
2019-04-01T03:57:31.599Z,0.00
2019-04-01T03:58:31.594Z,0.00
2019-04-01T03:59:31.572Z,0.00
2019-04-01T04:00:31.566Z,0.00
2019-04-01T04:01:31.557Z,0.00
2019-04-01T04:02:32.300Z,0.00
2019-04-01T04:03:31.540Z,0.00
2019-04-01T04:04:31.521Z,0.00
2019-04-01T04:05:31.513Z,0.00
2019-04-01T04:06:31.509Z,0.00
2019-04-01T04:07:31.485Z,0.00
2019-04-01T04:08:31.495Z,0.00
2019-04-01T04:09:31.462Z,0.00
2019-04-01T04:10:31.456Z,0.00
2019-04-01T04:11:31.445Z,0.00
2019-04-01T04:12:31.433Z,0.00
2019-04-01T04:13:31.456Z,0.00
2019-04-01T04:14:31.425Z,0.00
2019-04-01T04:15:31.406Z,4.00
2019-04-01T04:16:31.421Z,4.00
2019-04-01T04:17:31.375Z,4.00
2019-04-01T04:18:31.381Z,0.00
2019-04-01T04:19:31.355Z,4.00
2019-04-01T04:20:31.351Z,4.00
2019-04-01T04:21:31.355Z,4.00
2019-04-01T04:22:31.351Z,4.00
2019-04-01T04:23:31.311Z,4.00
2019-04-01T04:24:31.420Z,8.00
2019-04-01T04:25:31.293Z,8.00
2019-04-01T04:26:31.282Z,8.00
2019-04-01T04:27:31.275Z,12.00
2019-04-01T04:28:31.277Z,12.00
2019-04-01T04:29:31.247Z,16.00
2019-04-01T04:30:31.241Z,20.00
2019-04-01T04:31:31.223Z,20.00
2019-04-01T04:32:31.797Z,28.00
2019-04-01T04:33:31.209Z,28.00
2019-04-01T04:34:31.214Z,32.00
2019-04-01T04:35:31.184Z,36.00
2019-04-01T04:36:31.171Z,40.00
2019-04-01T04:37:31.160Z,48.00
2019-04-01T04:38:31.156Z,52.00
2019-04-01T04:39:31.138Z,60.00
2019-04-01T04:40:31.323Z,64.00
2019-04-01T04:41:31.126Z,72.00
2019-04-01T04:42:31.108Z,76.00
2019-04-01T04:43:31.094Z,84.00
2019-04-01T04:44:33.786Z,96.00
2019-04-01T04:45:31.076Z,104.00
2019-04-01T04:46:31.083Z,112.00
2019-04-01T04:47:31.072Z,120.00
2019-04-01T04:48:31.782Z,128.00
2019-04-01T04:49:31.028Z,136.00
2019-04-01T04:50:33.780Z,148.00
2019-04-01T04:51:31.117Z,160.00
2019-04-01T04:52:30.997Z,168.00
2019-04-01T04:53:30.989Z,180.00
2019-04-01T04:54:30.979Z,188.00
2019-04-01T04:55:30.963Z,200.00
2019-04-01T04:56:30.952Z,212.00
2019-04-01T04:57:30.964Z,220.00
2019-04-01T04:58:30.961Z,236.00
2019-04-01T04:59:33.774Z,244.00
2019-04-01T05:00:30.911Z,256.00
2019-04-01T05:01:30.902Z,272.00
2019-04-01T05:02:30.896Z,284.00
2019-04-01T05:03:30.881Z,292.00
2019-04-01T05:04:30.892Z,304.00
2019-04-01T05:05:30.867Z,316.00
2019-04-01T05:06:30.865Z,324.00
2019-04-01T05:07:31.560Z,336.00
2019-04-01T05:08:30.825Z,344.00
2019-04-01T05:09:30.818Z,360.00
2019-04-01T05:10:30.807Z,368.00
2019-04-01T05:11:31.270Z,384.00
2019-04-01T05:12:30.812Z,392.00
2019-04-01T05:13:33.288Z,404.00
2019-04-01T05:14:30.770Z,416.00
2019-04-01T05:16:29.761Z,440.00
2019-04-01T05:17:30.728Z,452.00
2019-04-01T05:18:30.739Z,460.00
2019-04-01T05:20:29.699Z,484.00
2019-04-01T05:21:30.685Z,496.00
2019-04-01T05:22:33.270Z,504.00
2019-04-01T05:23:30.814Z,516.00
2019-04-01T05:24:30.734Z,524.00
2019-04-01T05:25:32.040Z,536.00
2019-04-01T05:26:30.631Z,548.00
2019-04-01T05:27:30.617Z,556.00
2019-04-01T05:28:30.610Z,564.00
2019-04-01T05:29:30.830Z,576.00
2019-04-01T05:30:30.585Z,588.00
2019-04-01T05:31:33.269Z,596.00
2019-04-01T05:32:30.570Z,600.00
2019-04-01T05:33:30.552Z,612.00
2019-04-01T05:34:30.543Z,620.00
2019-04-01T05:35:30.554Z,636.00
2019-04-01T05:36:30.516Z,644.00
2019-04-01T05:37:30.515Z,644.00
2019-04-01T05:38:33.259Z,648.00
2019-04-01T05:39:30.487Z,652.00
2019-04-01T05:40:30.479Z,656.00
2019-04-01T05:41:30.489Z,660.00
2019-04-01T05:42:30.457Z,664.00
2019-04-01T05:44:29.460Z,688.00
2019-04-01T05:45:30.426Z,696.00
2019-04-01T05:46:30.408Z,704.00
2019-04-01T05:47:30.409Z,712.00
2019-04-01T05:48:33.264Z,724.00
2019-04-01T05:49:30.392Z,736.00
2019-04-01T05:50:30.371Z,748.00
2019-04-01T05:51:34.263Z,764.00
2019-04-01T05:52:30.348Z,776.00
2019-04-01T05:53:33.259Z,792.00
2019-04-01T05:54:30.335Z,804.00
2019-04-01T05:55:30.323Z,812.00
2019-04-01T05:56:30.327Z,828.00
2019-04-01T05:57:33.301Z,840.00
2019-04-01T05:58:30.764Z,852.00
2019-04-01T05:59:30.758Z,868.00
2019-04-01T06:00:32.760Z,880.00
2019-04-01T06:01:30.254Z,892.00
2019-04-01T06:02:30.266Z,908.00
2019-04-01T06:03:30.234Z,920.00
2019-04-01T06:04:30.217Z,932.00
2019-04-01T06:05:30.204Z,948.00
2019-04-01T06:06:30.225Z,956.00
2019-04-01T06:07:30.268Z,968.00
2019-04-01T06:08:30.213Z,972.00
2019-04-01T06:09:30.175Z,984.00
2019-04-01T06:10:30.161Z,992.00
2019-04-01T06:11:30.147Z,1004.00
2019-04-01T06:12:30.146Z,1012.00
2019-04-01T06:13:30.163Z,1024.00
2019-04-01T06:14:30.113Z,1032.00
2019-04-01T06:15:32.753Z,1044.00
2019-04-01T06:16:30.092Z,1052.00
2019-04-01T06:17:30.079Z,1064.00
2019-04-01T06:18:30.137Z,1076.00
2019-04-01T06:19:30.082Z,1084.00
2019-04-01T06:20:30.041Z,1092.00
2019-04-01T06:21:30.038Z,1100.00
2019-04-01T06:22:30.020Z,1112.00
2019-04-01T06:23:30.023Z,1124.00
2019-04-01T06:24:30.045Z,1128.00
2019-04-01T06:25:29.994Z,1140.00
2019-04-01T06:26:29.976Z,1148.00
2019-04-01T06:27:30.375Z,1152.00
2019-04-01T06:28:29.965Z,1164.00
2019-04-01T06:29:29.949Z,1172.00
2019-04-01T06:30:32.748Z,1176.00
2019-04-01T06:31:29.950Z,1184.00
2019-04-01T06:33:28.917Z,1200.00
2019-04-01T06:34:29.895Z,1204.00
2019-04-01T06:35:29.888Z,1212.00
2019-04-01T06:36:29.937Z,1220.00
2019-04-01T06:37:29.869Z,1224.00
2019-04-01T06:38:30.745Z,1236.00
2019-04-01T06:39:29.839Z,1240.00
2019-04-01T06:40:29.832Z,1244.00
2019-04-01T06:41:29.818Z,1252.00
2019-04-01T06:42:29.823Z,1260.00
2019-04-01T06:43:29.801Z,1264.00
2019-04-01T06:44:29.787Z,1272.00
2019-04-01T06:45:29.783Z,1280.00
2019-04-01T06:46:32.244Z,1284.00
2019-04-01T06:47:29.747Z,1292.00
2019-04-01T06:48:29.761Z,1296.00
2019-04-01T06:49:29.735Z,1308.00
2019-04-01T06:50:29.717Z,1312.00
2019-04-01T06:51:32.237Z,1316.00
2019-04-01T06:52:29.717Z,1324.00
2019-04-01T06:53:29.686Z,1332.00
2019-04-01T06:54:30.239Z,1340.00
2019-04-01T06:55:29.664Z,1344.00
2019-04-01T06:56:30.248Z,1352.00
2019-04-01T06:57:29.665Z,1360.00
2019-04-01T06:58:29.638Z,1360.00
2019-04-01T06:59:29.618Z,1368.00
2019-04-01T07:00:29.730Z,1376.00
2019-04-01T07:01:29.601Z,1380.00
2019-04-01T07:02:29.583Z,1384.00
2019-04-01T07:03:29.590Z,1392.00
2019-04-01T07:04:29.566Z,1400.00
2019-04-01T07:05:29.563Z,1404.00
2019-04-01T07:06:29.587Z,1412.00
2019-04-01T07:07:29.528Z,1420.00
2019-04-01T07:08:29.533Z,1424.00
2019-04-01T07:09:29.558Z,1436.00
2019-04-01T07:10:29.501Z,1448.00
2019-04-01T07:11:29.578Z,1456.00
2019-04-01T07:12:29.481Z,1464.00
2019-04-01T07:13:29.466Z,1476.00
2019-04-01T07:14:29.461Z,1484.00
2019-04-01T07:15:29.559Z,1492.00
2019-04-01T07:16:29.434Z,1496.00
2019-04-01T07:17:32.241Z,1508.00
2019-04-01T07:18:30.237Z,1516.00
2019-04-01T07:19:29.406Z,1520.00
2019-04-01T07:20:29.392Z,1532.00
2019-04-01T07:21:29.777Z,1532.00
2019-04-01T07:22:29.369Z,1544.00
2019-04-01T07:23:29.363Z,1548.00
2019-04-01T07:24:29.350Z,1560.00
2019-04-01T07:25:29.348Z,1564.00
2019-04-01T07:26:30.222Z,1572.00
2019-04-01T07:27:29.341Z,1576.00
2019-04-01T07:28:29.301Z,1580.00
2019-04-01T07:29:29.301Z,1588.00
2019-04-01T07:30:29.315Z,1596.00
2019-04-01T07:31:29.275Z,1600.00
2019-04-01T07:32:29.269Z,1604.00
2019-04-01T07:33:29.255Z,1612.00
2019-04-01T07:34:29.245Z,1616.00
2019-04-01T07:35:29.229Z,1620.00
2019-04-01T07:36:30.768Z,1624.00
2019-04-01T07:37:29.210Z,1628.00
2019-04-01T07:38:29.292Z,1636.00
2019-04-01T07:39:29.201Z,1640.00
2019-04-01T07:40:29.202Z,1640.00
2019-04-01T07:41:29.167Z,1648.00
2019-04-01T07:42:29.151Z,1652.00
2019-04-01T07:43:29.145Z,1656.00
2019-04-01T07:44:29.135Z,1660.00
2019-04-01T07:45:29.123Z,1664.00
2019-04-01T07:46:29.134Z,1672.00
2019-04-01T07:47:29.723Z,1676.00
2019-04-01T07:48:29.098Z,1684.00
2019-04-01T07:49:29.079Z,1688.00
2019-04-01T07:50:29.198Z,1696.00
2019-04-01T07:51:29.097Z,1700.00
2019-04-01T07:52:29.065Z,1704.00
2019-04-01T07:53:29.045Z,1708.00
2019-04-01T07:54:29.022Z,1716.00
2019-04-01T07:55:29.499Z,1724.00
2019-04-01T07:56:29.007Z,1728.00
2019-04-01T07:57:32.515Z,1732.00
2019-04-01T07:58:29.718Z,1732.00
2019-04-01T07:59:28.969Z,1740.00
2019-04-01T08:00:29.720Z,1744.00
2019-04-01T08:01:28.953Z,1748.00
2019-04-01T08:02:28.947Z,1752.00
2019-04-01T08:03:28.958Z,1764.00
2019-04-01T08:04:28.923Z,1764.00
2019-04-01T08:05:28.966Z,1764.00
2019-04-01T08:06:28.901Z,1768.00
2019-04-01T08:07:28.887Z,1772.00
2019-04-01T08:08:28.901Z,1780.00
2019-04-01T08:09:28.868Z,1788.00
2019-04-01T08:10:29.719Z,1788.00
2019-04-01T08:11:28.924Z,1796.00
2019-04-01T08:12:29.714Z,1800.00
2019-04-01T08:13:31.717Z,1804.00
2019-04-01T08:14:31.719Z,1808.00
2019-04-01T08:15:28.790Z,1812.00
2019-04-01T08:16:28.784Z,1820.00
2019-04-01T08:17:28.775Z,1820.00
2019-04-01T08:18:28.796Z,1824.00
2019-04-01T08:19:28.752Z,1828.00
2019-04-01T08:20:28.747Z,1836.00
2019-04-01T08:21:29.214Z,1844.00
2019-04-01T08:22:28.726Z,1848.00
2019-04-01T08:23:28.711Z,1852.00
2019-04-01T08:24:28.716Z,1860.00
2019-04-01T08:25:29.214Z,1860.00
2019-04-01T08:26:28.684Z,1864.00
2019-04-01T08:27:28.666Z,1876.00
2019-04-01T08:28:28.666Z,1884.00
2019-04-01T08:29:30.455Z,1884.00
2019-04-01T08:30:28.675Z,1896.00
2019-04-01T08:31:28.663Z,1896.00
2019-04-01T08:32:28.612Z,1900.00
2019-04-01T08:33:28.602Z,1900.00
2019-04-01T08:34:28.590Z,1900.00
2019-04-01T08:35:28.586Z,1908.00
2019-04-01T08:36:28.701Z,1912.00
2019-04-01T08:37:28.574Z,1924.00
2019-04-01T08:38:28.544Z,1924.00
2019-04-01T08:39:28.537Z,1932.00
2019-04-01T08:40:28.528Z,1936.00
2019-04-01T08:41:28.534Z,1948.00
2019-04-01T08:42:28.617Z,1944.00
2019-04-01T08:43:28.492Z,1952.00
2019-04-01T08:44:28.482Z,1956.00
2019-04-01T08:45:29.208Z,1964.00
2019-04-01T08:46:28.459Z,1968.00
2019-04-01T08:47:28.452Z,1972.00
2019-04-01T08:48:28.555Z,1972.00
2019-04-01T08:49:28.433Z,1980.00
2019-04-01T08:50:29.203Z,1972.00
2019-04-01T08:51:28.407Z,1980.00
2019-04-01T08:52:28.398Z,1972.00
2019-04-01T08:53:28.381Z,1984.00
2019-04-01T08:54:28.388Z,1992.00
2019-04-01T08:55:28.381Z,1992.00
2019-04-01T08:56:28.349Z,1996.00
2019-04-01T08:57:28.345Z,1996.00
2019-04-01T08:58:28.331Z,1996.00
2019-04-01T08:59:28.317Z,1996.00
2019-04-01T09:00:28.303Z,2000.00
2019-04-01T09:01:34.952Z,2008.00
2019-04-01T09:02:28.286Z,2004.00
2019-04-01T09:03:28.279Z,2008.00
2019-04-01T09:04:28.254Z,2008.00
2019-04-01T09:05:28.251Z,2008.00
2019-04-01T09:06:31.184Z,2004.00
2019-04-01T09:07:28.313Z,2012.00
2019-04-01T09:08:28.216Z,2016.00
2019-04-01T09:09:28.208Z,2024.00
2019-04-01T09:10:28.196Z,2028.00
2019-04-01T09:11:28.218Z,2032.00
2019-04-01T09:12:28.173Z,2040.00
2019-04-01T09:13:28.185Z,2044.00
2019-04-01T09:14:28.149Z,2048.00
2019-04-01T09:15:28.142Z,2048.00
2019-04-01T09:16:28.136Z,2056.00
2019-04-01T09:17:28.116Z,2064.00
2019-04-01T09:18:28.106Z,2068.00
2019-04-01T09:19:28.132Z,2080.00
2019-04-01T09:20:28.096Z,2096.00
2019-04-01T09:21:28.072Z,2100.00
2019-04-01T09:22:28.270Z,2096.00
2019-04-01T09:23:28.041Z,2100.00
2019-04-01T09:24:28.048Z,2100.00
2019-04-01T09:25:28.026Z,2084.00
2019-04-01T09:26:28.018Z,2104.00
2019-04-01T09:27:28.014Z,2112.00
2019-04-01T09:28:28.106Z,2120.00
2019-04-01T09:29:27.990Z,2120.00
2019-04-01T09:30:27.983Z,2116.00
2019-04-01T09:31:27.970Z,2120.00
2019-04-01T09:32:27.954Z,2128.00
2019-04-01T09:33:28.011Z,2132.00
2019-04-01T09:34:27.949Z,2136.00
2019-04-01T09:35:27.933Z,2136.00
2019-04-01T09:36:27.920Z,2144.00
2019-04-01T09:37:27.898Z,2136.00
2019-04-01T09:38:27.889Z,2144.00
2019-04-01T09:39:27.875Z,2168.00
2019-04-01T09:40:27.989Z,2184.00
2019-04-01T09:41:28.693Z,2212.00
2019-04-01T09:42:27.846Z,2236.00
2019-04-01T09:43:27.830Z,2256.00
2019-04-01T09:44:36.981Z,2248.00
2019-04-01T09:45:27.817Z,2240.00
2019-04-01T09:46:27.832Z,2228.00
2019-04-01T09:47:27.788Z,2224.00
2019-04-01T09:48:27.808Z,2228.00
2019-04-01T09:49:27.769Z,2240.00
2019-04-01T09:50:27.756Z,2244.00
2019-04-01T09:51:27.745Z,2252.00
2019-04-01T09:52:27.770Z,2256.00
2019-04-01T09:53:27.721Z,2272.00
2019-04-01T09:54:30.209Z,2284.00
2019-04-01T09:55:27.702Z,2300.00
2019-04-01T09:56:27.691Z,2316.00
2019-04-01T09:57:27.699Z,2336.00
2019-04-01T09:58:27.675Z,2348.00
2019-04-01T09:59:27.664Z,2364.00
2019-04-01T10:00:28.184Z,2380.00
2019-04-01T10:01:28.190Z,2400.00
2019-04-01T10:02:31.990Z,2416.00
2019-04-01T10:03:27.643Z,2440.00
2019-04-01T10:04:27.604Z,2448.00
2019-04-01T10:06:26.589Z,2488.00
2019-04-01T10:09:26.544Z,2524.00
2019-04-01T10:10:27.538Z,2528.00
2019-04-01T10:11:27.521Z,2516.00
2019-04-01T10:12:27.525Z,2516.00
2019-04-01T10:13:27.852Z,2512.00
2019-04-01T10:14:27.489Z,2500.00
2019-04-01T10:15:28.184Z,2484.00
2019-04-01T10:16:27.494Z,2472.00
2019-04-01T10:17:27.466Z,2464.00
2019-04-01T10:18:27.442Z,2468.00
2019-04-01T10:19:27.469Z,2468.00
2019-04-01T10:20:27.428Z,2472.00
2019-04-01T10:21:27.414Z,2476.00
2019-04-01T10:22:28.182Z,2468.00
2019-04-01T10:23:31.682Z,2456.00
2019-04-01T10:24:28.182Z,2448.00
2019-04-01T10:25:27.368Z,2428.00
2019-04-01T10:26:27.355Z,2412.00
2019-04-01T10:27:27.353Z,2400.00
2019-04-01T10:28:27.338Z,2392.00
2019-04-01T10:29:27.342Z,2388.00
2019-04-01T10:30:27.317Z,2380.00
2019-04-01T10:31:27.307Z,2372.00
2019-04-01T10:32:27.290Z,2368.00
2019-04-01T10:34:26.270Z,2348.00
2019-04-01T10:35:27.278Z,2336.00
2019-04-01T10:36:27.266Z,2328.00
2019-04-01T10:37:27.240Z,2324.00
2019-04-01T10:38:27.241Z,2324.00
2019-04-01T10:39:27.210Z,2324.00
2019-04-01T10:40:27.243Z,2312.00
2019-04-01T10:41:27.200Z,2300.00
2019-04-01T10:42:27.185Z,2296.00
2019-04-01T10:43:27.174Z,2296.00
2019-04-01T10:44:27.159Z,2288.00
2019-04-01T10:45:27.161Z,2288.00
2019-04-01T10:46:27.179Z,2292.00
2019-04-01T10:47:27.691Z,2288.00
2019-04-01T10:48:27.211Z,2288.00
2019-04-01T10:49:27.124Z,2292.00
2019-04-01T10:50:27.215Z,2292.00
2019-04-01T10:51:27.081Z,2288.00
2019-04-01T10:52:27.140Z,2288.00
2019-04-01T10:53:27.062Z,2288.00
2019-04-01T10:54:27.082Z,2284.00
2019-04-01T10:55:27.107Z,2284.00
2019-04-01T10:56:27.081Z,2284.00
2019-04-01T10:57:27.103Z,2284.00
2019-04-01T10:58:27.056Z,2284.00
2019-04-01T10:59:27.016Z,2280.00
2019-04-01T11:00:27.033Z,2288.00
2019-04-01T11:01:27.003Z,2288.00
2019-04-01T11:02:26.992Z,2284.00
2019-04-01T11:03:26.971Z,2276.00
2019-04-01T11:04:26.976Z,2268.00
2019-04-01T11:05:27.013Z,2268.00
2019-04-01T11:06:26.982Z,2272.00
2019-04-01T11:07:26.970Z,2268.00
2019-04-01T11:08:26.939Z,2264.00
2019-04-01T11:09:38.336Z,2264.00
2019-04-01T11:10:26.879Z,2264.00
2019-04-01T11:11:27.338Z,2260.00
2019-04-01T11:12:26.857Z,2252.00
2019-04-01T11:13:26.846Z,2252.00
2019-04-01T11:14:26.861Z,2252.00
2019-04-01T11:15:26.827Z,2252.00
2019-04-01T11:16:26.910Z,2252.00
2019-04-01T11:17:26.805Z,2252.00
2019-04-01T11:18:26.801Z,2248.00
2019-04-01T11:19:26.784Z,2244.00
2019-04-01T11:20:26.830Z,2252.00
2019-04-01T11:21:26.787Z,2248.00
2019-04-01T11:22:26.754Z,2240.00
2019-04-01T11:23:26.753Z,2244.00
2019-04-01T11:24:26.739Z,2236.00
2019-04-01T11:25:26.718Z,2240.00
2019-04-01T11:26:26.728Z,2240.00
2019-04-01T11:27:26.695Z,2240.00
2019-04-01T11:28:26.689Z,2240.00
2019-04-01T11:29:26.692Z,2236.00
2019-04-01T11:30:26.683Z,2240.00
2019-04-01T11:31:26.674Z,2244.00
2019-04-01T11:32:26.715Z,2240.00
2019-04-01T11:33:26.649Z,2240.00
2019-04-01T11:34:26.719Z,2240.00
2019-04-01T11:35:26.606Z,2240.00
2019-04-01T11:36:26.608Z,2240.00
2019-04-01T11:37:26.673Z,2236.00
2019-04-01T11:38:26.583Z,2232.00
2019-04-01T11:39:26.702Z,2228.00
2019-04-01T11:40:26.559Z,2232.00
2019-04-01T11:41:29.229Z,2228.00
2019-04-01T11:42:26.603Z,2220.00
2019-04-01T11:43:26.582Z,2228.00
2019-04-01T11:44:26.528Z,2220.00
2019-04-01T11:45:26.565Z,2216.00
2019-04-01T11:46:26.548Z,2212.00
2019-04-01T11:47:26.484Z,2212.00
2019-04-01T11:48:26.474Z,2208.00
2019-04-01T11:49:26.466Z,2204.00
2019-04-01T11:50:26.475Z,2200.00
2019-04-01T11:51:33.510Z,2200.00
2019-04-01T11:52:26.460Z,2204.00
2019-04-01T11:53:26.414Z,2204.00
2019-04-01T11:54:26.401Z,2200.00
2019-04-01T11:55:26.390Z,2196.00
2019-04-01T11:56:26.844Z,2192.00
2019-04-01T11:57:26.394Z,2184.00
2019-04-01T11:58:26.373Z,2180.00
2019-04-01T11:59:26.364Z,2176.00
2019-04-01T12:00:26.450Z,2176.00
2019-04-01T12:01:26.338Z,2176.00
2019-04-01T12:02:26.345Z,2176.00
2019-04-01T12:03:26.325Z,2172.00
2019-04-01T12:04:26.297Z,2172.00
2019-04-01T12:05:26.289Z,2172.00
2019-04-01T12:06:26.278Z,2176.00
2019-04-01T12:07:26.292Z,2184.00
2019-04-01T12:08:26.292Z,2192.00
2019-04-01T12:09:27.087Z,2204.00
2019-04-01T12:10:26.231Z,2208.00
2019-04-01T12:11:26.223Z,2216.00
2019-04-01T12:12:26.209Z,2204.00
2019-04-01T12:13:26.219Z,2200.00
2019-04-01T12:14:26.192Z,2204.00
2019-04-01T12:15:26.177Z,2208.00
2019-04-01T12:16:26.167Z,2216.00
2019-04-01T12:17:26.167Z,2228.00
2019-04-01T12:18:26.143Z,2220.00
2019-04-01T12:19:26.150Z,2220.00
2019-04-01T12:20:26.121Z,2224.00
2019-04-01T12:21:26.111Z,2224.00
2019-04-01T12:22:26.197Z,2236.00
2019-04-01T12:23:26.097Z,2252.00
2019-04-01T12:24:26.086Z,2256.00
2019-04-01T12:25:26.084Z,2264.00
2019-04-01T12:26:26.059Z,2264.00
2019-04-01T12:27:26.049Z,2264.00
2019-04-01T12:28:26.208Z,2256.00
2019-04-01T12:29:26.027Z,2252.00
2019-04-01T12:30:28.646Z,2260.00
2019-04-01T12:31:26.003Z,2252.00
2019-04-01T12:32:26.001Z,2248.00
2019-04-01T12:33:26.618Z,2240.00
2019-04-01T12:34:25.993Z,2264.00
2019-04-01T12:35:25.962Z,2268.00
2019-04-01T12:36:25.949Z,2236.00
2019-04-01T12:37:30.214Z,2240.00
2019-04-01T12:38:25.932Z,2216.00
2019-04-01T12:39:25.915Z,2200.00
2019-04-01T12:40:26.650Z,2220.00
2019-04-01T12:41:26.644Z,2180.00
2019-04-01T12:42:25.887Z,2196.00
2019-04-01T12:43:25.877Z,2172.00
2019-04-01T12:44:25.939Z,2148.00
2019-04-01T12:45:25.970Z,2132.00
2019-04-01T12:46:25.865Z,2120.00
2019-04-01T12:47:25.832Z,2104.00
2019-04-01T12:48:25.824Z,2120.00
2019-04-01T12:49:28.643Z,2124.00
2019-04-01T12:50:25.800Z,2104.00
2019-04-01T12:51:25.787Z,2104.00